Time;durP1;ratioP1;P1;durP2;ratioP2;P2;SDS_P1;SDS_P2;PMS_P1;PMS_P2;Temp;Humidity;BMP_temperature;BMP_pressure;BME280_temperature;BME280_humidity;BME280_pressure;Samples;Min_cycle;Max_cycle;Signal;HPM_P1;HPM_P2
2022/06/13 00:01:11;;;;;;;5.85;5.25;;;23.60;99.90;;;;;;5070723;28;20198;-72
2022/06/13 00:03:40;;;;;;;5.32;4.82;;;23.60;99.90;;;;;;5071157;28;20331;-71
2022/06/13 00:06:08;;;;;;;7.15;4.97;;;23.50;99.90;;;;;;5070510;28;20248;-69
2022/06/13 00:08:35;;;;;;;5.05;4.65;;;23.50;99.90;;;;;;5071134;28;20214;-71
2022/06/13 00:11:02;;;;;;;5.65;4.95;;;23.50;99.90;;;;;;5070637;28;20264;-71
2022/06/13 00:13:29;;;;;;;5.72;4.47;;;23.60;99.90;;;;;;5071213;28;20226;-70
2022/06/13 00:15:56;;;;;;;5.40;4.75;;;23.50;99.90;;;;;;5071400;28;20704;-71
2022/06/13 00:18:24;;;;;;;9.52;5.00;;;23.40;99.90;;;;;;5070336;28;20293;-71
2022/06/13 00:20:54;;;;;;;6.32;4.72;;;23.40;99.90;;;;;;5070802;28;20210;-69
2022/06/13 00:23:21;;;;;;;5.55;5.05;;;23.40;99.90;;;;;;5070472;28;20283;-69
2022/06/13 00:25:48;;;;;;;5.70;4.45;;;23.40;99.90;;;;;;5071088;28;20263;-69
2022/06/13 00:28:15;;;;;;;7.75;5.05;;;23.50;99.90;;;;;;5070117;28;20723;-72
2022/06/13 00:30:42;;;;;;;7.55;4.97;;;23.50;99.90;;;;;;5070598;28;20206;-69
2022/06/13 00:33:09;;;;;;;6.15;4.72;;;23.50;99.90;;;;;;5070376;28;20272;-71
2022/06/13 00:35:36;;;;;;;6.93;5.43;;;23.40;99.90;;;;;;5070373;28;20256;-72
2022/06/13 00:38:04;;;;;;;6.22;5.22;;;23.30;99.90;;;;;;5070277;28;20576;-69
2022/06/13 00:40:32;;;;;;;6.45;4.25;;;23.20;99.90;;;;;;5069996;28;20214;-72
2022/06/13 00:42:59;;;;;;;7.75;4.82;;;23.10;99.90;;;;;;5070587;28;20198;-72
2022/06/13 00:45:28;;;;;;;5.93;4.72;;;23.10;99.90;;;;;;5070507;28;20214;-70
2022/06/13 00:47:56;;;;;;;5.95;4.65;;;23.00;99.90;;;;;;5070488;28;20252;-69
2022/06/13 00:50:27;;;;;;;9.02;4.97;;;22.90;99.90;;;;;;5070149;28;20260;-71
2022/06/13 00:52:59;;;;;;;8.48;5.25;;;22.80;99.90;;;;;;5070509;28;20263;-69
2022/06/13 00:55:34;;;;;;;6.13;4.75;;;22.90;99.90;;;;;;5070244;28;20306;-70
2022/06/13 00:58:02;;;;;;;10.13;4.88;;;22.90;99.90;;;;;;5070209;28;20226;-69
2022/06/13 01:00:32;;;;;;;8.50;4.78;;;22.80;99.90;;;;;;5070632;28;20354;-69
2022/06/13 01:03:01;;;;;;;6.80;3.97;;;22.70;99.90;;;;;;5071194;28;20206;-70
2022/06/13 01:05:31;;;;;;;8.75;4.25;;;22.70;99.90;;;;;;5070429;28;20210;-70
2022/06/13 01:08:01;;;;;;;7.45;4.25;;;22.80;99.90;;;;;;5070715;28;20198;-70
2022/06/13 01:13:15;;;;;;;7.38;4.65;;;22.70;99.90;;;;;;5069799;28;20205;-68
2022/06/13 01:16:10;;;;;;;7.30;3.65;;;22.80;99.90;;;;;;5070060;28;20670;-69
2022/06/13 01:19:02;;;;;;;10.43;4.53;;;22.70;99.90;;;;;;5070119;28;20210;-69
2022/06/13 01:21:39;;;;;;;7.60;3.85;;;22.60;99.90;;;;;;5070290;28;20206;-69
2022/06/13 01:24:38;;;;;;;7.78;4.18;;;22.50;99.90;;;;;;5069926;28;20263;-69
2022/06/13 01:27:33;;;;;;;8.02;4.43;;;22.50;99.90;;;;;;5057327;28;20206;-69
2022/06/13 01:30:24;;;;;;;8.93;4.03;;;22.30;99.90;;;;;;5070059;28;20617;-69
2022/06/13 01:32:59;;;;;;;5.82;3.15;;;22.20;99.90;;;;;;5070204;28;20206;-72
2022/06/13 01:35:39;;;;;;;8.38;3.78;;;22.30;99.90;;;;;;5056364;28;20269;-73
2022/06/13 01:38:18;;;;;;;11.93;4.25;;;22.10;99.90;;;;;;5069358;28;20666;-70
2022/06/13 01:40:58;;;;;;;11.13;3.70;;;21.90;99.90;;;;;;5069685;28;20249;-71
2022/06/13 01:43:36;;;;;;;8.68;3.88;;;21.70;99.90;;;;;;5070000;28;20233;-72
2022/06/13 01:46:09;;;;;;;8.63;3.90;;;21.70;99.90;;;;;;5069458;28;20206;-69
2022/06/13 01:48:45;;;;;;;7.20;4.70;;;21.50;99.90;;;;;;5069973;28;20238;-71
2022/06/13 01:51:22;;;;;;;9.10;4.13;;;21.50;99.90;;;;;;5069468;28;20259;-68
2022/06/13 01:53:55;;;;;;;11.20;4.03;;;21.30;99.90;;;;;;5073292;28;20233;-73
2022/06/13 01:56:29;;;;;;;8.77;3.90;;;21.20;99.90;;;;;;5059376;28;20210;-70
2022/06/13 01:59:00;;;;;;;9.45;3.70;;;21.20;99.90;;;;;;5073842;28;20209;-70
2022/06/13 02:01:37;;;;;;;7.35;3.42;;;21.20;99.90;;;;;;5060057;28;20209;-69
2022/06/13 02:04:10;;;;;;;8.57;5.72;;;21.10;99.90;;;;;;5073033;28;20745;-69
2022/06/13 02:06:43;;;;;;;6.80;3.90;;;21.00;99.90;;;;;;5060254;28;20210;-70
2022/06/13 02:09:16;;;;;;;7.43;4.28;;;21.10;99.90;;;;;;5072709;28;20210;-71
2022/06/13 02:11:47;;;;;;;7.60;4.15;;;21.00;99.90;;;;;;5060241;28;20238;-71
2022/06/13 02:14:19;;;;;;;5.95;3.92;;;21.00;99.90;;;;;;5070991;28;20262;-70
2022/06/13 02:16:54;;;;;;;6.15;4.85;;;20.90;99.90;;;;;;5073142;28;20210;-72
2022/06/13 02:19:27;;;;;;;12.63;6.22;;;20.90;99.90;;;;;;5072659;28;20629;-69
2022/06/13 02:21:59;;;;;;;10.68;4.80;;;20.80;99.90;;;;;;5072802;28;20242;-70
2022/06/13 02:24:32;;;;;;;10.20;4.93;;;20.80;99.90;;;;;;5072789;28;20256;-71
2022/06/13 02:27:02;;;;;;;11.70;5.30;;;20.70;99.90;;;;;;5073132;28;20236;-70
2022/06/13 02:29:33;;;;;;;9.02;4.75;;;20.70;99.90;;;;;;5073288;28;20634;-70
2022/06/13 02:32:06;;;;;;;8.43;5.07;;;20.80;99.90;;;;;;5073094;28;20265;-70
2022/06/13 02:34:37;;;;;;;6.47;5.45;;;20.60;99.90;;;;;;5073151;28;20709;-70
2022/06/13 02:37:10;;;;;;;9.80;5.03;;;20.60;99.90;;;;;;5072232;28;20206;-71
2022/06/13 02:39:44;;;;;;;12.23;6.05;;;20.60;99.90;;;;;;5072590;28;20264;-71
2022/06/13 02:42:16;;;;;;;10.40;5.05;;;20.70;99.90;;;;;;5072155;28;20689;-71
2022/06/13 02:44:47;;;;;;;8.52;6.10;;;20.60;99.90;;;;;;5072699;28;20210;-70
2022/06/13 02:47:19;;;;;;;13.30;5.65;;;20.60;99.90;;;;;;5071897;28;20206;-70
2022/06/13 02:49:55;;;;;;;7.60;5.32;;;20.70;99.90;;;;;;5072721;28;20267;-72
2022/06/13 02:52:28;;;;;;;11.52;6.13;;;20.80;99.90;;;;;;5072032;28;20209;-71
2022/06/13 02:54:58;;;;;;;10.90;6.20;;;20.70;99.90;;;;;;5072742;28;20384;-71
2022/06/13 02:57:50;;;;;;;11.38;7.43;;;20.60;99.90;;;;;;5071860;28;20577;-70
2022/06/13 03:00:22;;;;;;;9.43;6.47;;;20.50;99.90;;;;;;5072018;28;20206;-71
2022/06/13 03:03:06;;;;;;;12.10;7.00;;;20.40;99.90;;;;;;5072073;28;20208;-70
2022/06/13 03:06:00;;;;;;;11.25;6.25;;;20.30;99.90;;;;;;5072145;28;20202;-70
2022/06/13 03:08:44;;;;;;;11.40;6.63;;;20.20;99.90;;;;;;5061607;28;20206;-69
2022/06/13 03:11:31;;;;;;;9.52;6.53;;;20.20;99.90;;;;;;5071793;28;20202;-69
2022/06/13 03:14:16;;;;;;;12.00;6.95;;;20.30;99.90;;;;;;5067611;28;20291;-68
2022/06/13 03:16:52;;;;;;;7.53;5.90;;;20.20;99.90;;;;;;5072220;28;20272;-69
2022/06/13 03:19:24;;;;;;;9.00;6.55;;;19.80;99.90;;;;;;5071468;28;20263;-70
2022/06/13 03:21:55;;;;;;;14.48;7.53;;;19.80;99.90;;;;;;5071752;28;20639;-71
2022/06/13 03:24:30;;;;;;;9.18;6.55;;;19.90;99.90;;;;;;5071457;28;20214;-70
2022/06/13 03:27:04;;;;;;;12.88;7.55;;;20.00;99.90;;;;;;5058350;28;20731;-71
2022/06/13 03:29:35;;;;;;;10.30;7.15;;;19.80;99.90;;;;;;5071696;28;20630;-70
2022/06/13 03:32:08;;;;;;;11.93;8.38;;;19.50;99.90;;;;;;5057602;28;20285;-71
2022/06/13 03:34:42;;;;;;;11.18;7.50;;;19.50;99.90;;;;;;5071524;28;20234;-71
2022/06/13 03:37:12;;;;;;;13.25;8.15;;;19.50;99.90;;;;;;5057461;28;20210;-70
2022/06/13 03:39:43;;;;;;;12.45;7.25;;;19.70;1.00;;;;;;5071704;28;20617;-69
2022/06/13 03:42:13;;;;;;;13.07;7.95;;;19.60;99.90;;;;;;5071020;28;20213;-73
2022/06/13 03:44:47;;;;;;;8.60;7.57;;;19.70;99.90;;;;;;5071498;28;20210;-71
2022/06/13 03:47:18;;;;;;;13.32;7.38;;;19.70;99.90;;;;;;5071064;28;20210;-70
2022/06/13 03:49:51;;;;;;;12.30;6.90;;;19.80;99.90;;;;;;5071730;28;20218;-70
2022/06/13 03:52:19;;;;;;;12.48;8.63;;;19.90;99.90;;;;;;5070730;28;20206;-74
2022/06/13 03:54:54;;;;;;;9.73;7.70;;;19.80;99.90;;;;;;5071110;28;20685;-70
2022/06/13 03:57:23;;;;;;;11.13;7.25;;;19.90;99.90;;;;;;5070850;28;20259;-70
2022/06/13 03:59:56;;;;;;;7.45;6.57;;;20.10;99.90;;;;;;5071224;28;20789;-71
2022/06/13 04:02:27;;;;;;;9.05;6.90;;;20.10;99.90;;;;;;5070713;28;20681;-73
2022/06/13 04:04:56;;;;;;;12.90;7.65;;;20.00;99.90;;;;;;5071060;28;20221;-71
2022/06/13 04:07:25;;;;;;;9.40;7.55;;;19.90;99.90;;;;;;5070776;28;20206;-73
2022/06/13 04:09:58;;;;;;;15.38;8.77;;;19.70;99.90;;;;;;5071140;28;20271;-71
2022/06/13 04:12:46;;;;;;;8.52;6.88;;;19.60;99.90;;;;;;5070831;28;20206;-71
2022/06/13 04:15:31;;;;;;;15.20;8.30;;;19.60;99.90;;;;;;5069842;28;20230;-73
2022/06/13 04:18:06;;;;;;;10.77;8.40;;;19.70;99.90;;;;;;5057358;28;20205;-73
2022/06/13 04:20:44;;;;;;;8.90;6.75;;;19.60;99.90;;;;;;5070626;28;20206;-72
2022/06/13 04:23:18;;;;;;;10.73;7.55;;;19.50;99.90;;;;;;5067761;28;20204;-71
2022/06/13 04:25:50;;;;;;;15.77;7.43;;;19.60;99.90;;;;;;5070813;28;20270;-70
2022/06/13 04:28:22;;;;;;;12.30;8.15;;;19.60;99.90;;;;;;5070354;28;20259;-68
2022/06/13 04:30:51;;;;;;;12.18;6.75;;;19.50;99.90;;;;;;5070637;28;20216;-74
2022/06/13 04:33:21;;;;;;;10.40;8.27;;;19.40;99.90;;;;;;5070070;28;20206;-71
2022/06/13 04:35:50;;;;;;;13.13;7.45;;;19.50;99.90;;;;;;5070478;28;20609;-70
2022/06/13 04:38:21;;;;;;;12.80;8.23;;;19.70;99.90;;;;;;5070314;28;20206;-68
2022/06/13 04:40:51;;;;;;;12.00;7.38;;;19.50;99.90;;;;;;5070541;28;20670;-71
2022/06/13 04:43:23;;;;;;;10.13;6.85;;;19.60;99.90;;;;;;5070118;28;20201;-72
2022/06/13 04:45:53;;;;;;;12.98;7.28;;;19.50;99.90;;;;;;5070377;28;20340;-74
2022/06/13 04:48:21;;;;;;;8.90;7.28;;;19.60;99.90;;;;;;5069880;28;20271;-69
2022/06/13 04:50:52;;;;;;;8.73;6.43;;;19.50;99.90;;;;;;5070658;28;20281;-71
2022/06/13 04:53:22;;;;;;;13.02;7.38;;;19.50;99.90;;;;;;5069975;28;20264;-72
2022/06/13 04:55:52;;;;;;;11.70;7.50;;;19.60;99.90;;;;;;5069786;28;20222;-72
2022/06/13 04:58:23;;;;;;;8.43;7.18;;;19.60;99.90;;;;;;5070274;28;20263;-72
2022/06/13 05:00:56;;;;;;;10.45;7.22;;;19.50;99.90;;;;;;5072690;28;20695;-70
2022/06/13 05:03:27;;;;;;;12.63;7.65;;;19.60;99.90;;;;;;5076052;28;20210;-70
2022/06/13 05:06:00;;;;;;;8.65;7.00;;;19.80;99.90;;;;;;5074213;28;20198;-70
2022/06/13 05:08:29;;;;;;;10.32;6.88;;;20.00;99.90;;;;;;5075429;28;20242;-71
2022/06/13 05:11:03;;;;;;;8.20;7.00;;;20.00;99.90;;;;;;5075758;28;20747;-69
2022/06/13 05:13:30;;;;;;;11.38;6.50;;;20.10;99.90;;;;;;5077012;28;20259;-71
2022/06/13 05:16:06;;;;;;;10.32;7.50;;;20.10;99.90;;;;;;5077413;28;20257;-70
2022/06/13 05:18:54;;;;;;;11.27;8.02;;;20.20;99.90;;;;;;5077956;28;20265;-71
2022/06/13 05:21:37;;;;;;;11.02;7.18;;;20.10;99.90;;;;;;5067710;28;20256;-70
2022/06/13 05:24:25;;;;;;;10.73;8.27;;;20.10;99.90;;;;;;5070229;28;20206;-71
2022/06/13 05:26:52;;;;;;;8.18;7.30;;;20.20;99.90;;;;;;5072855;28;20214;-71
2022/06/13 05:29:19;;;;;;;8.57;7.07;;;20.30;99.90;;;;;;5074838;28;20206;-70
2022/06/13 05:31:46;;;;;;;9.30;6.97;;;20.30;99.90;;;;;;5074698;28;20198;-70
2022/06/13 05:34:22;;;;;;;17.02;8.32;;;20.20;99.90;;;;;;5075808;28;20213;-71
2022/06/13 05:36:50;;;;;;;10.35;8.18;;;20.20;99.90;;;;;;5074201;28;20290;-70
2022/06/13 05:39:17;;;;;;;10.60;7.80;;;20.10;99.90;;;;;;5077240;28;20264;-71
2022/06/13 05:41:45;;;;;;;13.23;8.30;;;20.10;99.90;;;;;;5071117;28;20259;-69
2022/06/13 05:44:11;;;;;;;10.25;8.00;;;20.10;99.90;;;;;;5067240;28;20209;-70
2022/06/13 05:46:40;;;;;;;16.95;9.80;;;20.10;99.90;;;;;;5077135;28;20206;-68
2022/06/13 05:49:07;;;;;;;8.20;7.22;;;20.30;99.90;;;;;;5078656;28;20210;-69
2022/06/13 05:51:34;;;;;;;9.45;7.22;;;20.30;99.90;;;;;;5083941;28;20726;-71
2022/06/13 05:54:03;;;;;;;9.88;7.78;;;20.40;99.90;;;;;;5080431;28;20272;-71
2022/06/13 05:56:31;;;;;;;10.52;7.90;;;20.60;99.90;;;;;;5084340;28;20229;-74
2022/06/13 05:58:58;;;;;;;10.35;9.20;;;20.60;99.90;;;;;;5075661;28;20230;-73
2022/06/13 06:01:25;;;;;;;9.88;7.63;;;20.70;99.90;;;;;;5076600;28;20623;-73
2022/06/13 06:03:51;;;;;;;8.63;6.85;;;20.90;99.90;;;;;;5083176;28;20732;-73
2022/06/13 06:06:21;;;;;;;8.90;7.97;;;20.80;99.90;;;;;;5072413;28;20211;-73
2022/06/13 06:08:49;;;;;;;9.13;7.68;;;21.00;99.90;;;;;;5079927;28;20237;-73
2022/06/13 06:11:18;;;;;;;8.98;8.07;;;21.60;99.90;;;;;;5073268;28;20634;-73
2022/06/13 06:13:45;;;;;;;7.20;6.47;;;21.40;99.90;;;;;;5087097;28;20201;-73
2022/06/13 06:16:16;;;;;;;8.15;7.32;;;21.10;99.90;;;;;;5080820;28;20240;-74
2022/06/13 06:18:43;;;;;;;8.45;6.22;;;21.20;99.90;;;;;;5065540;28;20593;-69
2022/06/13 06:21:10;;;;;;;10.18;6.85;;;21.60;99.90;;;;;;5071392;28;20235;-74
2022/06/13 06:23:38;;;;;;;8.32;6.47;;;21.90;99.90;;;;;;5067940;28;20754;-72
2022/06/13 06:26:06;;;;;;;10.85;6.13;;;21.80;99.90;;;;;;5082429;28;20278;-71
2022/06/13 06:28:35;;;;;;;13.45;7.93;;;21.70;99.90;;;;;;5084942;28;20256;-72
2022/06/13 06:31:03;;;;;;;9.55;6.88;;;21.80;99.90;;;;;;5090383;28;20266;-71
2022/06/13 06:33:32;;;;;;;9.05;7.03;;;21.70;99.90;;;;;;5088649;28;20209;-71
2022/06/13 06:35:59;;;;;;;11.52;7.40;;;21.50;99.90;;;;;;5091060;28;20293;-70
2022/06/13 06:38:28;;;;;;;8.70;6.28;;;21.40;99.90;;;;;;5089113;28;20745;-69
2022/06/13 06:40:55;;;;;;;11.32;7.40;;;21.40;99.90;;;;;;5091347;28;20213;-71
2022/06/13 06:43:22;;;;;;;8.57;6.97;;;21.50;99.90;;;;;;5091603;28;20685;-73
2022/06/13 06:45:51;;;;;;;8.30;7.05;;;21.70;99.90;;;;;;5085069;28;20202;-68
2022/06/13 06:48:21;;;;;;;10.27;6.93;;;21.90;99.90;;;;;;5072189;28;20206;-72
2022/06/13 06:50:49;;;;;;;9.90;7.00;;;22.30;99.90;;;;;;5060828;28;20304;-71
2022/06/13 06:53:19;;;;;;;7.82;6.28;;;22.30;99.90;;;;;;5073373;28;20252;-70
2022/06/13 07:01:30;;;;;;;14.30;6.30;;;22.20;99.90;;;;;;5043958;28;20263;-69
2022/06/13 07:03:57;;;;;;;11.70;8.27;;;22.10;99.90;;;;;;5062597;28;20210;-69
2022/06/13 07:06:24;;;;;;;12.48;6.82;;;22.30;99.90;;;;;;5071895;28;20214;-72
2022/06/13 07:08:51;;;;;;;13.02;5.72;;;22.40;99.90;;;;;;5072227;28;20247;-70
2022/06/13 07:14:08;;;;;;;8.57;5.63;;;22.50;99.90;;;;;;5077297;28;20335;-75
2022/06/13 07:16:37;;;;;;;8.57;6.50;;;22.60;99.90;;;;;;5083332;28;20315;-75
2022/06/13 07:19:04;;;;;;;9.32;6.47;;;23.00;99.90;;;;;;5072131;28;20678;-73
2022/06/13 07:21:31;;;;;;;7.50;6.35;;;23.00;99.90;;;;;;5072776;28;20259;-71
2022/06/13 07:23:58;;;;;;;9.10;5.47;;;23.20;99.90;;;;;;5072241;28;20198;-70
2022/06/13 07:26:25;;;;;;;5.50;4.30;;;23.40;99.90;;;;;;5072048;28;20674;-69
2022/06/13 07:28:52;;;;;;;10.20;5.18;;;23.10;99.90;;;;;;5072357;28;20206;-70
2022/06/13 07:31:21;;;;;;;5.40;4.63;;;22.80;99.90;;;;;;5074088;28;20666;-70
2022/06/13 07:33:51;;;;;;;7.20;4.93;;;22.60;99.90;;;;;;5073625;28;20210;-72
2022/06/13 07:36:19;;;;;;;10.70;5.82;;;22.60;99.90;;;;;;5074253;28;20276;-76
2022/06/13 07:38:46;;;;;;;12.48;6.03;;;23.10;99.90;;;;;;5074550;28;20247;-71
2022/06/13 07:41:18;;;;;;;9.40;6.85;;;23.10;99.90;;;;;;5074409;28;20217;-71
2022/06/13 07:43:45;;;;;;;7.68;5.78;;;22.80;99.90;;;;;;5075846;28;20665;-71
2022/06/13 07:46:13;;;;;;;10.27;6.18;;;22.70;99.90;;;;;;5075122;28;20291;-70
2022/06/13 07:48:40;;;;;;;10.70;6.43;;;22.70;99.90;;;;;;5074130;28;20202;-71
2022/06/13 07:51:10;;;;;;;7.15;5.70;;;23.30;99.90;;;;;;5066233;28;20206;-71
2022/06/13 07:53:37;;;;;;;6.65;6.03;;;23.30;99.90;;;;;;5078494;28;20676;-72
2022/06/13 07:56:04;;;;;;;15.18;6.88;;;23.00;99.90;;;;;;5069870;28;20271;-69
2022/06/13 07:58:35;;;;;;;10.00;6.90;;;23.00;99.90;;;;;;5068932;28;20214;-70
2022/06/13 08:01:03;;;;;;;10.20;8.05;;;23.10;99.90;;;;;;5070729;28;20206;-70
2022/06/13 08:03:31;;;;;;;8.15;6.30;;;23.10;99.90;;;;;;5071076;28;20214;-70
2022/06/13 08:05:59;;;;;;;11.40;7.25;;;23.30;99.90;;;;;;5069478;28;20198;-71
2022/06/13 08:08:28;;;;;;;7.05;5.65;;;24.40;99.90;;;;;;5070162;28;20267;-72
2022/06/13 08:10:57;;;;;;;9.85;4.97;;;26.40;99.90;;;;;;5070857;28;20682;-71
2022/06/13 08:13:25;;;;;;;9.18;6.07;;;25.40;99.90;;;;;;5070508;28;20247;-75
2022/06/13 08:15:52;;;;;;;8.60;4.85;;;25.70;99.90;;;;;;5070505;28;20234;-71
2022/06/13 08:18:20;;;;;;;8.80;5.90;;;25.00;99.90;;;;;;5070667;28;20206;-71
2022/06/13 08:20:47;;;;;;;11.55;4.97;;;24.60;99.90;;;;;;5070662;28;20612;-71
2022/06/13 08:23:17;;;;;;;8.00;5.75;;;24.40;99.90;;;;;;5070657;28;20234;-71
2022/06/13 08:25:46;;;;;;;9.90;4.70;;;24.70;99.90;;;;;;5070037;28;20206;-71
2022/06/13 08:28:13;;;;;;;6.00;4.20;;;24.90;99.90;;;;;;5070401;28;20553;-71
2022/06/13 08:30:43;;;;;;;6.60;4.80;;;25.00;99.90;;;;;;5070830;28;20210;-70
2022/06/13 08:33:10;;;;;;;5.68;4.57;;;24.80;99.90;;;;;;5070303;28;20206;-71
2022/06/13 08:35:38;;;;;;;4.82;3.92;;;24.90;99.90;;;;;;5070666;28;20206;-71
2022/06/13 08:38:05;;;;;;;7.03;3.75;;;25.20;99.90;;;;;;5070512;28;20206;-71
2022/06/13 08:40:40;;;;;;;6.95;4.28;;;25.20;99.90;;;;;;5056688;28;20263;-70
2022/06/13 08:43:25;;;;;;;5.05;3.53;;;25.20;99.90;;;;;;5070258;28;20645;-71
2022/06/13 08:45:58;;;;;;;5.45;3.20;;;24.90;99.90;;;;;;5058752;28;20561;-71
2022/06/13 08:48:33;;;;;;;5.20;4.53;;;24.60;99.90;;;;;;5070266;28;20306;-71
2022/06/13 08:51:06;;;;;;;5.25;4.82;;;24.90;99.90;;;;;;5070953;28;20638;-71
2022/06/13 08:53:42;;;;;;;6.43;4.13;;;25.00;99.90;;;;;;5070377;28;20210;-71
2022/06/13 08:56:12;;;;;;;4.32;3.63;;;25.20;99.90;;;;;;5069824;28;20279;-71
2022/06/13 08:58:47;;;;;;;6.22;3.90;;;25.70;99.90;;;;;;5070346;28;20228;-70
2022/06/13 09:01:18;;;;;;;5.88;3.78;;;26.30;99.90;;;;;;5069725;28;20206;-72
2022/06/13 09:03:51;;;;;;;8.40;5.03;;;26.30;99.90;;;;;;5070152;28;20260;-71
2022/06/13 09:06:22;;;;;;;7.70;3.67;;;26.20;99.90;;;;;;5070242;28;20248;-80
2022/06/13 09:08:54;;;;;;;4.72;4.13;;;26.20;99.90;;;;;;5070191;28;20201;-72
2022/06/13 09:11:24;;;;;;;4.18;3.28;;;27.50;99.90;;;;;;5069714;28;20210;-71
2022/06/13 09:14:02;;;;;;;6.72;3.97;;;30.10;99.90;;;;;;5070053;28;20206;-71
2022/06/13 09:16:33;;;;;;;8.13;4.03;;;31.80;99.90;;;;;;5070602;28;20233;-71
2022/06/13 09:19:08;;;;;;;4.47;3.85;;;34.40;99.90;;;;;;5070336;28;20220;-72
2022/06/13 09:21:40;;;;;;;7.93;3.60;;;34.20;99.90;;;;;;5070358;28;20248;-72
2022/06/13 09:24:13;;;;;;;7.10;4.18;;;33.20;99.90;;;;;;5069574;28;20628;-73
2022/06/13 09:26:46;;;;;;;5.78;4.07;;;32.20;99.90;;;;;;5070223;28;20198;-71
2022/06/13 09:29:22;;;;;;;4.75;4.18;;;32.60;99.90;;;;;;5069856;28;20653;-72
2022/06/13 09:31:53;;;;;;;8.27;3.85;;;34.70;99.90;;;;;;5070032;28;20258;-72
2022/06/13 09:34:28;;;;;;;5.22;3.47;;;37.40;99.90;;;;;;5069859;28;20209;-72
2022/06/13 09:37:02;;;;;;;5.25;3.58;;;37.40;99.90;;;;;;5070287;28;20601;-73
2022/06/13 09:39:29;;;;;;;4.97;4.40;;;36.10;99.90;;;;;;5070286;28;20206;-72
2022/06/13 09:42:08;;;;;;;4.20;3.72;;;36.40;99.90;;;;;;5070149;28;20213;-74
2022/06/13 09:44:51;;;;;;;6.90;4.10;;;36.00;99.90;;;;;;5070059;28;20209;-73
2022/06/13 09:47:25;;;;;;;4.38;3.60;;;38.10;99.90;;;;;;5069539;28;20206;-72
2022/06/13 09:50:04;;;;;;;5.47;4.03;;;38.00;99.90;;;;;;5070083;28;20251;-73
2022/06/13 09:52:41;;;;;;;8.40;4.05;;;37.00;99.90;;;;;;5056609;28;20240;-71
2022/06/13 09:55:16;;;;;;;7.32;3.63;;;38.20;99.90;;;;;;5069364;28;20557;-72
2022/06/13 09:57:49;;;;;;;3.85;3.15;;;38.10;99.90;;;;;;5069862;28;20643;-72
2022/06/13 10:00:26;;;;;;;5.55;4.00;;;36.40;99.90;;;;;;5069274;28;20626;-72
2022/06/13 10:03:01;;;;;;;7.93;3.25;;;36.70;99.90;;;;;;5070098;28;20251;-72
2022/06/13 10:05:38;;;;;;;4.70;2.72;;;37.20;99.90;;;;;;5070167;28;20209;-79
2022/06/13 10:08:16;;;;;;;5.30;3.70;;;37.40;99.90;;;;;;5065921;28;20250;-72
2022/06/13 10:10:53;;;;;;;7.10;3.72;;;38.40;99.90;;;;;;5069855;28;20197;-72
2022/06/13 10:13:40;;;;;;;6.22;3.67;;;39.00;99.90;;;;;;5070196;28;20208;-73
2022/06/13 10:16:15;;;;;;;4.35;3.47;;;38.10;99.90;;;;;;5072642;28;20263;-73
2022/06/13 10:18:57;;;;;;;7.03;4.57;;;38.80;99.90;;;;;;5073132;28;20207;-73
2022/06/13 10:21:31;;;;;;;4.50;3.72;;;39.90;99.90;;;;;;5072946;28;20267;-71
2022/06/13 10:24:09;;;;;;;6.43;3.97;;;39.00;99.90;;;;;;5073577;28;20202;-72
2022/06/13 10:26:48;;;;;;;6.80;4.10;;;37.60;99.90;;;;;;5073076;28;20652;-84
2022/06/13 10:29:48;;;;;;;3.85;3.47;;;38.90;99.90;;;;;;5072968;28;20206;-72
2022/06/13 10:32:29;;;;;;;7.05;2.83;;;39.40;99.90;;;;;;5067144;28;20247;-76
2022/06/13 10:35:08;;;;;;;4.05;3.17;;;37.90;99.90;;;;;;5073409;28;20564;-85
2022/06/13 10:37:44;;;;;;;9.73;3.28;;;36.50;99.90;;;;;;5072653;28;20229;-71
2022/06/13 10:40:12;;;;;;;4.28;3.00;;;32.90;99.90;;;;;;5072474;28;20217;-72
2022/06/13 10:42:40;;;;;;;4.03;3.05;;;31.20;99.90;;;;;;5072748;28;20738;-78
2022/06/13 10:45:10;;;;;;;3.88;2.97;;;30.10;99.90;;;;;;5072442;28;20214;-73
2022/06/13 10:47:46;;;;;;;4.00;2.75;;;30.10;99.90;;;;;;5072776;28;20205;-71
2022/06/13 10:50:17;;;;;;;3.80;3.50;;;30.00;99.90;;;;;;5072075;28;20695;-72
2022/06/13 10:52:48;;;;;;;5.28;3.30;;;30.10;99.90;;;;;;5072824;28;20197;-71
2022/06/13 10:55:22;;;;;;;5.57;3.15;;;29.70;99.90;;;;;;5072344;28;20209;-72
2022/06/13 10:57:53;;;;;;;6.57;3.47;;;29.40;99.90;;;;;;5072571;28;20271;-71
2022/06/13 11:00:23;;;;;;;2.95;2.70;;;28.90;99.90;;;;;;5071946;28;20213;-71
2022/06/13 11:02:51;;;;;;;3.40;2.95;;;29.40;99.90;;;;;;5072528;28;20669;-71
2022/06/13 11:05:21;;;;;;;2.85;2.63;;;29.50;99.90;;;;;;5072049;28;20202;-71
2022/06/13 11:07:52;;;;;;;4.07;3.33;;;29.50;99.90;;;;;;5056001;28;20202;-79
2022/06/13 11:10:26;;;;;;;9.88;5.85;;;30.00;99.90;;;;;;5064356;28;20202;-77
2022/06/13 11:12:54;;;;;;;3.95;3.30;;;29.90;99.90;;;;;;5072741;28;20247;-73
2022/06/13 11:24:03;;;;;;;4.53;3.13;;;30.30;99.90;;;;;;5071691;28;20243;-73
2022/06/13 11:29:23;;;;;;;4.90;3.30;;;30.60;99.90;;;;;;5071165;28;20339;-73
2022/06/13 11:31:51;;;;;;;4.90;3.22;;;30.70;99.90;;;;;;5073528;28;20651;-74
2022/06/13 11:34:29;;;;;;;2.55;2.35;;;30.80;99.90;;;;;;5072533;28;20681;-72
2022/06/13 11:37:02;;;;;;;2.60;2.40;;;30.60;99.90;;;;;;5072036;28;20248;-72
2022/06/13 11:39:38;;;;;;;11.45;2.60;;;30.70;99.90;;;;;;5072969;28;20213;-72
2022/06/13 11:42:17;;;;;;;6.00;2.45;;;31.00;99.90;;;;;;5071910;28;20213;-72
2022/06/13 11:44:48;;;;;;;6.70;2.72;;;30.80;99.90;;;;;;5074615;28;20235;-72
2022/06/13 11:47:17;;;;;;;2.15;1.90;;;30.80;99.90;;;;;;5073129;28;20293;-73
2022/06/13 11:49:49;;;;;;;4.35;2.63;;;30.90;99.90;;;;;;5075128;28;20206;-75
2022/06/13 11:55:24;;;;;;;3.20;2.42;;;30.60;99.90;;;;;;5078745;28;20649;-77
2022/06/13 11:57:54;;;;;;;3.83;2.55;;;30.70;99.90;;;;;;5081188;28;20233;-71
2022/06/13 12:00:37;;;;;;;2.90;2.17;;;31.00;99.90;;;;;;5083420;28;20213;-72
2022/06/13 12:03:17;;;;;;;3.38;3.10;;;30.80;99.90;;;;;;5081709;28;20217;-76
2022/06/13 12:05:47;;;;;;;3.20;2.60;;;30.40;99.90;;;;;;5071087;28;20206;-71
2022/06/13 12:08:21;;;;;;;2.58;2.35;;;30.60;99.90;;;;;;5070146;28;20263;-72
2022/06/13 12:10:59;;;;;;;3.08;2.15;;;30.90;99.90;;;;;;5069934;28;20198;-72
2022/06/13 12:13:27;;;;;;;3.33;2.08;;;31.00;99.90;;;;;;5070633;28;20633;-72
2022/06/13 12:16:00;;;;;;;2.30;2.10;;;31.10;99.90;;;;;;5071017;28;20241;-72
2022/06/13 12:18:35;;;;;;;3.45;2.30;;;30.90;99.90;;;;;;5071013;28;20279;-72
2022/06/13 12:21:08;;;;;;;3.13;2.72;;;30.90;99.90;;;;;;5070577;28;20252;-72
2022/06/13 12:23:49;;;;;;;4.00;3.03;;;31.20;99.90;;;;;;5057603;28;20236;-73
2022/06/13 12:26:22;;;;;;;2.60;1.70;;;31.40;99.90;;;;;;5070183;28;20666;-71
2022/06/13 12:28:58;;;;;;;4.00;3.03;;;31.30;99.90;;;;;;5070805;28;20206;-72
2022/06/13 12:31:35;;;;;;;4.13;2.50;;;31.40;99.90;;;;;;5070649;28;20685;-72
2022/06/13 12:34:15;;;;;;;1.98;1.85;;;31.50;99.90;;;;;;5070482;28;20250;-72
2022/06/13 12:37:04;;;;;;;3.88;1.83;;;31.20;99.90;;;;;;5069955;28;20245;-71
2022/06/13 12:39:46;;;;;;;5.20;3.00;;;31.30;99.90;;;;;;5069906;28;20202;-72
2022/06/13 12:42:28;;;;;;;4.25;2.40;;;31.20;99.90;;;;;;5070121;28;20754;-72
2022/06/13 12:45:31;;;;;;;3.83;1.95;;;30.90;99.90;;;;;;5070935;28;20209;-72
2022/06/13 12:48:27;;;;;;;3.53;2.38;;;30.90;99.90;;;;;;5070732;28;20255;-72
2022/06/13 12:51:16;;;;;;;3.72;2.03;;;31.20;99.90;;;;;;5070574;28;20582;-71
2022/06/13 12:54:03;;;;;;;3.08;2.75;;;31.30;99.90;;;;;;5070405;28;20206;-73
2022/06/13 12:56:38;;;;;;;3.65;2.22;;;31.20;99.90;;;;;;5069479;28;20672;-73
2022/06/13 12:59:17;;;;;;;7.40;2.67;;;30.70;99.90;;;;;;5069900;28;20766;-73
2022/06/13 13:01:56;;;;;;;3.90;2.50;;;31.00;99.90;;;;;;5070406;28;20214;-72
2022/06/13 13:04:42;;;;;;;2.80;2.58;;;31.20;99.90;;;;;;5056518;28;20262;-72
2022/06/13 13:07:19;;;;;;;5.65;2.20;;;31.40;99.90;;;;;;5070027;28;20216;-72
2022/06/13 13:10:04;;;;;;;4.65;2.53;;;31.50;99.90;;;;;;5070350;28;20244;-72
2022/06/13 13:13:01;;;;;;;8.05;2.67;;;31.60;99.90;;;;;;5070259;28;20197;-72
2022/06/13 13:15:36;;;;;;;2.90;2.63;;;31.50;99.90;;;;;;5070624;28;20266;-72
2022/06/13 13:18:10;;;;;;;2.72;2.03;;;31.70;99.90;;;;;;5056668;28;20233;-71
2022/06/13 13:20:44;;;;;;;3.85;2.08;;;31.70;99.90;;;;;;5070441;28;20209;-73
2022/06/13 13:23:18;;;;;;;3.60;2.22;;;31.60;99.90;;;;;;5066822;28;20198;-73
2022/06/13 13:25:56;;;;;;;2.33;2.10;;;31.50;99.90;;;;;;5070034;28;20672;-73
2022/06/13 13:28:32;;;;;;;4.50;2.35;;;31.40;99.90;;;;;;5069775;28;20208;-72
2022/06/13 13:31:04;;;;;;;3.85;2.90;;;31.40;99.90;;;;;;5070381;28;20258;-73
2022/06/13 13:33:53;;;;;;;2.90;2.20;;;31.10;99.90;;;;;;5070117;28;20286;-72
2022/06/13 13:36:25;;;;;;;2.80;1.95;;;31.30;99.90;;;;;;5069590;28;21017;-73
2022/06/13 13:38:57;;;;;;;7.95;3.55;;;31.40;99.90;;;;;;5056266;28;20591;-73